createdAt,value
2022-08-25T00:01:40.045Z,8.00
2022-08-25T00:06:42.983Z,7.85
2022-08-25T00:11:44.691Z,8.30
2022-08-25T00:16:46.172Z,8.35
2022-08-25T00:21:47.590Z,7.97
2022-08-25T00:26:50.515Z,7.38
2022-08-25T00:31:53.206Z,9.63
2022-08-25T00:36:54.799Z,7.20
2022-08-25T00:41:57.094Z,8.00
2022-08-25T00:47:01.045Z,10.52
2022-08-25T00:52:13.919Z,8.48
2022-08-25T00:57:16.711Z,10.70
2022-08-25T01:02:18.479Z,9.88
2022-08-25T01:07:20.851Z,9.93
2022-08-25T01:12:22.689Z,10.30
2022-08-25T01:17:27.839Z,10.27
2022-08-25T01:22:29.362Z,9.70
2022-08-25T01:27:30.845Z,9.95
2022-08-25T01:32:33.836Z,8.73
2022-08-25T01:37:35.694Z,7.25
2022-08-25T01:42:43.549Z,7.03
2022-08-25T01:47:45.041Z,6.30
2022-08-25T01:52:55.586Z,5.88
2022-08-25T01:57:58.290Z,6.20
2022-08-25T02:03:00.476Z,5.78
2022-08-25T02:08:02.412Z,5.75
2022-08-25T02:13:04.616Z,6.20
2022-08-25T02:18:10.582Z,6.70
2022-08-25T02:23:12.403Z,5.82
2022-08-25T02:28:14.020Z,6.53
2022-08-25T02:33:15.523Z,6.18
2022-08-25T02:38:16.969Z,5.57
2022-08-25T02:43:18.371Z,5.00
2022-08-25T02:48:19.980Z,5.15
2022-08-25T02:53:21.815Z,5.80
2022-08-25T02:58:24.092Z,5.00
2022-08-25T03:03:25.897Z,5.53
2022-08-25T03:08:27.334Z,5.78
2022-08-25T03:13:28.769Z,5.47
2022-08-25T03:18:30.793Z,4.68
2022-08-25T03:23:32.203Z,5.72
2022-08-25T03:28:33.988Z,5.30
2022-08-25T03:33:35.451Z,4.97
2022-08-25T03:38:38.409Z,4.78
2022-08-25T03:43:39.960Z,5.05
2022-08-25T03:48:41.374Z,4.82
2022-08-25T03:53:42.748Z,5.15
2022-08-25T03:58:44.682Z,4.97
2022-08-25T04:03:46.749Z,5.30
2022-08-25T04:08:48.605Z,4.97
2022-08-25T04:13:50.268Z,4.90
2022-08-25T04:18:52.383Z,4.75
2022-08-25T04:23:54.976Z,4.90
2022-08-25T04:28:57.138Z,4.85
2022-08-25T04:33:58.770Z,4.78
2022-08-25T04:39:00.199Z,4.07
2022-08-25T04:44:02.820Z,4.40
2022-08-25T04:49:04.878Z,4.30
2022-08-25T04:54:08.072Z,4.53
2022-08-25T04:59:14.130Z,4.00
2022-08-25T05:04:27.745Z,3.97
2022-08-25T05:09:32.442Z,4.22
2022-08-25T05:14:34.332Z,3.80
2022-08-25T05:19:36.282Z,3.72
2022-08-25T05:24:37.744Z,4.10
2022-08-25T05:29:39.147Z,4.32
2022-08-25T05:34:40.616Z,4.40
2022-08-25T05:39:42.065Z,3.90
2022-08-25T05:44:43.594Z,3.97
2022-08-25T05:49:45.037Z,3.75
2022-08-25T05:54:46.932Z,3.97
2022-08-25T05:59:48.549Z,4.68
2022-08-25T06:04:50.204Z,4.22
2022-08-25T06:09:51.613Z,4.32
2022-08-25T06:14:53.067Z,4.43
2022-08-25T06:19:57.359Z,4.00
2022-08-25T06:24:58.796Z,4.35
2022-08-25T06:30:07.985Z,4.13
2022-08-25T06:35:11.017Z,4.35
2022-08-25T06:40:13.695Z,4.30
2022-08-25T06:45:15.350Z,3.97
2022-08-25T06:50:16.771Z,3.92
2022-08-25T06:55:18.407Z,3.95
2022-08-25T07:00:20.032Z,4.22
2022-08-25T07:05:27.326Z,4.22
2022-08-25T07:10:35.248Z,4.13
2022-08-25T07:15:38.927Z,3.58
2022-08-25T07:20:40.742Z,4.00
2022-08-25T07:25:42.171Z,3.88
2022-08-25T07:30:43.915Z,3.78
2022-08-25T07:35:45.584Z,3.72
2022-08-25T07:40:54.491Z,4.03
2022-08-25T07:45:58.544Z,3.63
2022-08-25T07:51:01.776Z,3.50
2022-08-25T07:56:15.758Z,3.55
2022-08-25T08:01:19.503Z,3.72
2022-08-25T08:06:22.473Z,3.83
2022-08-25T08:11:27.059Z,3.50
2022-08-25T08:16:30.336Z,3.60
2022-08-25T08:21:32.959Z,3.90
2022-08-25T08:26:55.448Z,3.92
2022-08-25T08:31:56.015Z,3.85
2022-08-25T08:36:58.535Z,3.50
2022-08-25T08:42:18.327Z,3.22
2022-08-25T08:47:28.881Z,3.60
2022-08-25T08:52:37.670Z,3.60
2022-08-25T08:57:43.088Z,3.90
2022-08-25T09:02:58.752Z,3.55
2022-08-25T09:08:03.273Z,3.60
2022-08-25T09:13:26.150Z,3.60
2022-08-25T09:18:39.006Z,3.15
2022-08-25T09:23:42.709Z,3.58
2022-08-25T09:28:51.498Z,3.50
2022-08-25T09:33:55.500Z,3.33
2022-08-25T09:38:57.000Z,3.42
2022-08-25T09:43:58.428Z,3.45
2022-08-25T09:49:11.731Z,3.42
2022-08-25T09:54:13.283Z,3.30
2022-08-25T09:59:20.079Z,3.33
2022-08-25T10:04:28.283Z,3.20
2022-08-25T10:09:31.674Z,3.38
2022-08-25T10:14:36.532Z,3.50
2022-08-25T10:19:38.808Z,3.03
2022-08-25T10:24:44.077Z,3.35
2022-08-25T10:29:56.689Z,3.63
2022-08-25T10:34:59.742Z,3.22
2022-08-25T10:40:12.452Z,3.28
2022-08-25T10:45:39.227Z,3.08
2022-08-25T10:50:45.504Z,2.78
2022-08-25T10:55:53.185Z,3.00
2022-08-25T11:00:59.400Z,2.97
2022-08-25T11:06:04.668Z,3.55
2022-08-25T11:11:10.146Z,2.90
2022-08-25T11:16:18.723Z,2.90
2022-08-25T11:26:31.943Z,3.10
2022-08-25T11:31:39.964Z,3.00
2022-08-25T11:36:44.213Z,3.00
2022-08-25T11:41:47.322Z,3.30
2022-08-25T11:47:00.888Z,2.90
2022-08-25T11:52:02.412Z,2.92
2022-08-25T11:57:16.934Z,3.20
2022-08-25T12:02:39.136Z,3.28
2022-08-25T12:07:47.001Z,2.75
2022-08-25T12:18:09.094Z,2.65
2022-08-25T12:23:11.273Z,2.60
2022-08-25T12:28:22.999Z,2.60
2022-08-25T12:33:27.411Z,2.60
2022-08-25T12:38:51.849Z,2.45
2022-08-25T12:44:01.625Z,2.30
2022-08-25T12:49:12.595Z,2.50
2022-08-25T12:54:22.527Z,2.30
2022-08-25T12:59:33.048Z,2.25
2022-08-25T13:04:53.001Z,2.72
2022-08-25T13:10:12.978Z,2.63
2022-08-25T13:15:16.437Z,2.35
2022-08-25T13:20:20.256Z,2.90
2022-08-25T13:25:23.192Z,2.78
2022-08-25T13:30:31.303Z,2.55
2022-08-25T13:35:33.142Z,2.50
2022-08-25T13:40:36.623Z,2.53
2022-08-25T13:45:41.888Z,2.42
2022-08-25T13:50:43.729Z,2.42
2022-08-25T13:55:56.967Z,2.70
2022-08-25T14:01:22.419Z,2.50
2022-08-25T14:11:55.206Z,2.78
2022-08-25T14:17:16.333Z,3.10
2022-08-25T14:22:23.758Z,2.40
2022-08-25T14:27:26.379Z,2.42
2022-08-25T14:32:27.864Z,2.42
2022-08-25T14:37:32.431Z,2.42
2022-08-25T14:42:34.034Z,2.58
2022-08-25T14:47:35.606Z,2.35
2022-08-25T14:52:37.370Z,2.25
2022-08-25T14:57:39.069Z,2.50
2022-08-25T15:02:42.518Z,2.42
2022-08-25T15:08:02.781Z,2.53
2022-08-25T15:13:05.826Z,2.40
2022-08-25T15:18:08.012Z,2.53
2022-08-25T15:23:11.321Z,2.20
2022-08-25T15:28:12.822Z,2.40
2022-08-25T15:33:18.955Z,2.33
2022-08-25T15:38:20.728Z,2.55
2022-08-25T15:43:22.298Z,2.20
2022-08-25T15:48:23.977Z,2.42
2022-08-25T15:53:26.416Z,2.53
2022-08-25T15:58:27.855Z,2.20
2022-08-25T16:03:29.376Z,2.50
2022-08-25T16:08:31.186Z,2.22
2022-08-25T16:13:33.037Z,2.30
2022-08-25T16:18:34.489Z,2.22
2022-08-25T16:23:35.870Z,2.40
2022-08-25T16:28:37.599Z,2.45
2022-08-25T16:33:39.778Z,3.40
2022-08-25T16:38:42.471Z,4.32
2022-08-25T16:43:51.176Z,5.05
2022-08-25T16:48:53.218Z,5.05
2022-08-25T16:54:13.884Z,5.63
2022-08-25T16:59:19.307Z,5.57
2022-08-25T17:04:20.807Z,8.00
2022-08-25T17:09:31.038Z,8.60
2022-08-25T17:14:32.589Z,9.50
2022-08-25T17:19:34.474Z,11.82
2022-08-25T17:24:36.147Z,7.78
2022-08-25T17:29:43.484Z,11.18
2022-08-25T17:34:45.268Z,8.95
2022-08-25T17:39:46.727Z,12.10
2022-08-25T17:44:51.501Z,11.20
2022-08-25T17:49:52.954Z,11.05
2022-08-25T17:54:54.357Z,12.65
2022-08-25T18:00:00.328Z,14.23
2022-08-25T18:05:04.033Z,15.00
2022-08-25T18:10:06.927Z,15.57
2022-08-25T18:15:08.645Z,15.20
2022-08-25T18:20:11.650Z,17.50
2022-08-25T18:25:14.063Z,15.95
2022-08-25T18:30:15.480Z,15.23
2022-08-25T18:35:17.409Z,15.68
2022-08-25T18:40:23.418Z,17.00
2022-08-25T18:45:29.760Z,21.10
2022-08-25T18:50:32.858Z,19.90
2022-08-25T18:55:34.376Z,20.25
2022-08-25T19:00:41.813Z,17.45
2022-08-25T19:05:45.917Z,21.27
2022-08-25T19:10:53.657Z,18.35
2022-08-25T19:15:55.158Z,20.55
2022-08-25T19:20:58.472Z,17.17
2022-08-25T19:26:00.668Z,17.02
2022-08-25T19:31:04.151Z,15.00
2022-08-25T19:36:06.356Z,15.85
2022-08-25T19:41:14.176Z,15.27
2022-08-25T19:46:16.298Z,14.40
2022-08-25T19:51:21.857Z,12.20
2022-08-25T19:56:23.550Z,11.80
2022-08-25T20:01:25.524Z,10.57
2022-08-25T20:06:27.732Z,10.35
2022-08-25T20:11:29.672Z,10.55
2022-08-25T20:16:31.192Z,11.18
2022-08-25T20:21:33.156Z,10.88
2022-08-25T20:26:39.075Z,9.50
2022-08-25T20:31:44.451Z,9.02
2022-08-25T20:36:49.922Z,9.00
2022-08-25T20:41:52.200Z,10.55
2022-08-25T20:46:54.719Z,9.15
2022-08-25T20:51:56.443Z,8.10
2022-08-25T20:56:58.085Z,8.02
2022-08-25T21:01:59.613Z,7.43
2022-08-25T21:07:01.229Z,6.53
2022-08-25T21:12:06.698Z,7.88
2022-08-25T21:17:12.671Z,6.55
2022-08-25T21:22:14.243Z,5.90
2022-08-25T21:27:16.637Z,6.72
2022-08-25T21:32:19.126Z,6.15
2022-08-25T21:37:20.820Z,5.80
2022-08-25T21:42:23.147Z,4.93
2022-08-25T21:47:24.692Z,5.25
2022-08-25T21:52:26.850Z,4.60
2022-08-25T21:57:28.347Z,4.03
2022-08-25T22:02:29.793Z,3.78
2022-08-25T22:07:34.390Z,4.00
2022-08-25T22:12:42.274Z,3.40
2022-08-25T22:17:43.784Z,3.40
2022-08-25T22:22:45.354Z,3.58
2022-08-25T22:27:47.453Z,3.58
2022-08-25T22:32:59.011Z,4.15
2022-08-25T22:38:00.644Z,3.03
2022-08-25T22:43:02.590Z,3.05
2022-08-25T22:48:05.032Z,3.42
2022-08-25T22:53:06.714Z,2.70
2022-08-25T22:58:09.532Z,2.67
2022-08-25T23:03:11.137Z,2.60
2022-08-25T23:08:12.764Z,2.20
2022-08-25T23:13:34.350Z,2.55
2022-08-25T23:18:40.540Z,2.17
2022-08-25T23:23:44.797Z,2.17
2022-08-25T23:28:46.349Z,2.38
2022-08-25T23:33:47.784Z,1.88
2022-08-25T23:38:51.599Z,2.15
2022-08-25T23:43:53.659Z,2.20
2022-08-25T23:48:55.518Z,2.58
2022-08-25T23:53:57.583Z,2.88
2022-08-25T23:59:01.233Z,2.50
